Terminal Aerodrome Forecast
Issued by NWS

Home | Current Version | Previous Version | Text Only | Print | Product List | Glossary On
Versions: 1 2 3 4 5 6 7 8 9 10 11 12 13 14 15
844
FTUS46 KMTR 121542 AAC
TAFSTS
TAF AMD
KSTS 121542Z 1216/1312 31004KT P6SM SCT250
     FM122100 32005KT P6SM BKN200
     FM130400 VRB03KT P6SM SCT200=

USA.gov is the U.S. government's official web portal to all federal, state and local government web resources and services.